createdAt,value
2023-04-28T00:00:29.418Z,2.90
2023-04-28T00:02:57.193Z,3.33
2023-04-28T00:05:25.257Z,3.05
2023-04-28T00:07:52.720Z,3.03
2023-04-28T00:10:20.667Z,3.47
2023-04-28T00:12:48.445Z,3.30
2023-04-28T00:15:16.128Z,3.25
2023-04-28T00:17:44.317Z,3.17
2023-04-28T00:20:12.463Z,3.17
2023-04-28T00:22:40.094Z,3.17
2023-04-28T00:25:08.637Z,2.60
2023-04-28T00:27:36.532Z,3.00
2023-04-28T00:30:04.437Z,3.22
2023-04-28T00:32:33.973Z,4.15
2023-04-28T00:35:01.429Z,4.62
2023-04-28T00:37:28.813Z,5.20
2023-04-28T00:39:59.284Z,5.75
2023-04-28T00:42:35.825Z,7.60
2023-04-28T00:45:06.555Z,7.85
2023-04-28T00:47:35.068Z,9.10
2023-04-28T00:50:06.565Z,9.90
2023-04-28T00:52:34.316Z,9.55
2023-04-28T00:55:02.303Z,10.93
2023-04-28T00:57:31.209Z,11.52
2023-04-28T01:00:01.021Z,10.57
2023-04-28T01:02:30.148Z,11.12
2023-04-28T01:04:58.410Z,9.52
2023-04-28T01:07:25.924Z,8.98
2023-04-28T01:09:53.438Z,9.25
2023-04-28T01:12:21.561Z,8.45
2023-04-28T01:14:50.031Z,8.75
2023-04-28T01:17:17.837Z,9.15
2023-04-28T01:19:45.457Z,9.20
2023-04-28T01:22:15.431Z,8.73
2023-04-28T01:24:43.300Z,8.35
2023-04-28T01:27:11.724Z,9.07
2023-04-28T01:29:39.594Z,9.45
2023-04-28T01:32:07.763Z,9.20
2023-04-28T01:34:35.600Z,9.60
2023-04-28T01:37:05.816Z,10.80
2023-04-28T01:39:33.435Z,10.00
2023-04-28T01:42:02.268Z,11.18
2023-04-28T01:44:29.693Z,11.52
2023-04-28T01:46:57.545Z,9.98
2023-04-28T01:49:25.309Z,11.60
2023-04-28T01:51:52.836Z,10.18
2023-04-28T01:54:21.042Z,9.88
2023-04-28T01:56:50.263Z,10.88
2023-04-28T01:59:20.492Z,10.43
2023-04-28T02:01:47.997Z,8.70
2023-04-28T02:04:18.325Z,9.80
2023-04-28T02:06:46.044Z,8.93
2023-04-28T02:09:13.565Z,7.30
2023-04-28T02:11:41.241Z,7.25
2023-04-28T02:14:08.630Z,7.53
2023-04-28T02:16:36.153Z,7.60
2023-04-28T02:19:03.820Z,7.47
2023-04-28T02:21:31.897Z,7.53
2023-04-28T02:23:59.617Z,7.93
2023-04-28T02:26:28.690Z,8.10
2023-04-28T02:28:56.388Z,7.12
2023-04-28T02:31:23.831Z,7.65
2023-04-28T02:33:54.503Z,8.10
2023-04-28T02:36:23.822Z,7.65
2023-04-28T02:38:51.197Z,8.10
2023-04-28T02:41:18.608Z,7.50
2023-04-28T02:43:46.378Z,7.15
2023-04-28T02:46:13.906Z,8.57
2023-04-28T02:48:42.642Z,7.90
2023-04-28T02:51:14.213Z,8.10
2023-04-28T02:53:41.967Z,8.07
2023-04-28T02:56:11.168Z,8.10
2023-04-28T02:58:38.604Z,8.30
2023-04-28T03:01:07.658Z,8.55
2023-04-28T03:03:35.669Z,8.30
2023-04-28T03:06:03.285Z,7.47
2023-04-28T03:08:30.687Z,7.50
2023-04-28T03:10:58.414Z,7.15
2023-04-28T03:13:25.942Z,6.35
2023-04-28T03:15:53.593Z,6.40
2023-04-28T03:18:22.540Z,7.32
2023-04-28T03:20:50.645Z,6.60
2023-04-28T03:23:18.091Z,6.82
2023-04-28T03:25:45.721Z,6.85
2023-04-28T03:28:13.167Z,6.40
2023-04-28T03:30:40.924Z,7.60
2023-04-28T03:33:08.584Z,7.12
2023-04-28T03:35:36.126Z,7.28
2023-04-28T03:38:03.590Z,6.75
2023-04-28T03:40:32.526Z,7.32
2023-04-28T03:43:04.772Z,6.85
2023-04-28T03:45:33.425Z,7.72
2023-04-28T03:48:01.942Z,6.37
2023-04-28T03:50:29.571Z,6.80
2023-04-28T03:52:57.641Z,7.12
2023-04-28T03:55:26.213Z,6.75
2023-04-28T03:57:53.721Z,7.60
2023-04-28T04:00:21.383Z,7.32
2023-04-28T04:02:49.182Z,6.37
2023-04-28T04:05:17.046Z,7.35
2023-04-28T04:07:44.748Z,7.20
2023-04-28T04:10:12.397Z,6.43
2023-04-28T04:12:40.636Z,6.55
2023-04-28T04:15:08.832Z,7.07
2023-04-28T04:17:36.978Z,6.87
2023-04-28T04:20:04.769Z,7.25
2023-04-28T04:22:32.163Z,6.90
2023-04-28T04:24:59.822Z,7.25
2023-04-28T04:27:27.237Z,6.03
2023-04-28T04:29:54.800Z,6.82
2023-04-28T04:32:23.023Z,5.85
2023-04-28T04:34:50.493Z,6.30
2023-04-28T04:37:19.342Z,5.90
2023-04-28T04:39:47.363Z,5.75
2023-04-28T04:42:24.683Z,5.37
2023-04-28T04:44:54.036Z,5.45
2023-04-28T04:47:22.904Z,5.68
2023-04-28T04:49:51.272Z,5.32
2023-04-28T04:52:19.058Z,6.28
2023-04-28T04:54:46.500Z,5.97
2023-04-28T04:57:14.446Z,5.72
2023-04-28T04:59:44.153Z,6.18
2023-04-28T05:02:12.518Z,5.93
2023-04-28T05:04:40.574Z,6.43
2023-04-28T05:07:08.614Z,6.47
2023-04-28T05:09:39.246Z,6.75
2023-04-28T05:12:06.890Z,6.82
2023-04-28T05:14:34.975Z,7.00
2023-04-28T05:17:02.901Z,8.00
2023-04-28T05:19:31.977Z,7.05
2023-04-28T05:22:00.977Z,7.43
2023-04-28T05:24:30.632Z,7.07
2023-04-28T05:26:59.050Z,6.75
2023-04-28T05:29:26.812Z,6.85
2023-04-28T05:31:54.353Z,6.05
2023-04-28T05:34:22.753Z,5.82
2023-04-28T05:36:51.983Z,6.00
2023-04-28T05:39:19.880Z,5.62
2023-04-28T05:41:47.278Z,5.82
2023-04-28T05:44:15.303Z,5.25
2023-04-28T05:46:42.884Z,5.22
2023-04-28T05:49:11.162Z,4.45
2023-04-28T05:51:39.846Z,5.32
2023-04-28T05:54:07.387Z,5.32
2023-04-28T05:56:36.031Z,5.50
2023-04-28T05:59:04.634Z,5.12
2023-04-28T06:01:32.301Z,5.37
2023-04-28T06:04:00.171Z,5.72
2023-04-28T06:06:28.037Z,5.55
2023-04-28T06:08:55.512Z,6.47
2023-04-28T06:11:23.282Z,7.43
2023-04-28T06:13:51.243Z,6.90
2023-04-28T06:16:19.126Z,7.18
2023-04-28T06:18:49.206Z,6.40
2023-04-28T06:21:17.544Z,5.93
2023-04-28T06:23:44.930Z,6.57
2023-04-28T06:26:13.155Z,5.97
2023-04-28T06:28:40.839Z,5.75
2023-04-28T06:31:09.077Z,5.20
2023-04-28T06:33:36.769Z,5.65
2023-04-28T06:36:04.350Z,5.62
2023-04-28T06:38:31.873Z,5.75
2023-04-28T06:40:59.901Z,4.85
2023-04-28T06:43:27.648Z,5.50
2023-04-28T06:45:57.676Z,5.90
2023-04-28T06:48:26.229Z,5.20
2023-04-28T06:50:53.638Z,6.50
2023-04-28T06:53:23.018Z,5.40
2023-04-28T06:55:50.757Z,6.90
2023-04-28T06:58:18.195Z,7.20
2023-04-28T07:00:45.867Z,6.75
2023-04-28T07:03:13.627Z,6.87
2023-04-28T07:05:41.143Z,6.87
2023-04-28T07:08:08.526Z,7.72
2023-04-28T07:10:36.342Z,7.28
2023-04-28T07:13:03.716Z,7.60
2023-04-28T07:15:31.995Z,6.75
2023-04-28T07:17:59.945Z,7.43
2023-04-28T07:20:27.812Z,6.82
2023-04-28T07:22:55.244Z,7.82
2023-04-28T07:25:23.452Z,8.00
2023-04-28T07:27:50.927Z,6.50
2023-04-28T07:30:27.285Z,7.00
2023-04-28T07:32:56.706Z,6.95
2023-04-28T07:35:24.430Z,8.10
2023-04-28T07:37:52.475Z,7.28
2023-04-28T07:40:20.486Z,7.35
2023-04-28T07:42:48.028Z,7.10
2023-04-28T07:45:16.279Z,6.47
2023-04-28T07:47:44.036Z,6.25
2023-04-28T07:50:12.097Z,7.05
2023-04-28T07:52:39.753Z,5.78
2023-04-28T07:55:07.741Z,7.05
2023-04-28T07:57:35.860Z,5.80
2023-04-28T08:00:03.812Z,5.75
2023-04-28T08:05:09.280Z,7.00
2023-04-28T08:07:37.314Z,7.50
2023-04-28T08:10:05.306Z,7.32
2023-04-28T08:12:33.026Z,7.85
2023-04-28T08:15:00.624Z,8.40
2023-04-28T08:17:28.112Z,8.30
2023-04-28T08:19:55.831Z,6.90
2023-04-28T08:22:23.203Z,7.43
2023-04-28T08:24:50.609Z,6.57
2023-04-28T08:27:18.493Z,5.93
2023-04-28T08:29:45.890Z,6.10
2023-04-28T08:32:13.301Z,6.43
2023-04-28T08:34:40.921Z,5.65
2023-04-28T08:37:08.331Z,6.05
2023-04-28T08:39:35.774Z,6.40
2023-04-28T08:42:07.327Z,5.82
2023-04-28T08:44:39.190Z,5.50
2023-04-28T08:47:13.210Z,6.90
2023-04-28T08:49:41.296Z,5.78
2023-04-28T08:52:13.645Z,5.07
2023-04-28T08:54:41.672Z,4.93
2023-04-28T08:57:10.312Z,5.12
2023-04-28T08:59:41.655Z,4.70
2023-04-28T09:02:09.517Z,5.10
2023-04-28T09:04:37.314Z,5.03
2023-04-28T09:07:11.176Z,4.32
2023-04-28T09:09:41.149Z,3.25
2023-04-28T09:12:09.170Z,4.93
2023-04-28T09:14:37.906Z,3.90
2023-04-28T09:17:13.305Z,4.07
2023-04-28T09:19:43.559Z,4.05
2023-04-28T09:22:25.531Z,3.55
2023-04-28T09:24:55.390Z,3.20
2023-04-28T09:27:28.238Z,3.58
2023-04-28T09:29:55.816Z,3.65
2023-04-28T09:32:24.797Z,4.07
2023-04-28T09:34:56.825Z,3.15
2023-04-28T09:37:27.299Z,3.28
2023-04-28T09:39:55.434Z,3.45
2023-04-28T09:42:42.664Z,3.45
2023-04-28T09:45:12.045Z,3.17
2023-04-28T09:47:46.924Z,3.08
2023-04-28T09:50:17.492Z,3.30
2023-04-28T09:52:56.678Z,3.28
2023-04-28T09:55:24.944Z,3.08
2023-04-28T09:57:54.912Z,3.05
2023-04-28T10:00:23.029Z,3.45
2023-04-28T10:02:51.979Z,3.37
2023-04-28T10:05:20.192Z,3.30
2023-04-28T10:07:47.885Z,3.30
2023-04-28T10:10:15.672Z,3.40
2023-04-28T10:12:44.148Z,3.20
2023-04-28T10:15:13.337Z,4.37
2023-04-28T10:17:41.121Z,4.35
2023-04-28T10:20:09.078Z,4.35
2023-04-28T10:23:06.758Z,4.28
2023-04-28T10:25:37.032Z,3.70
2023-04-28T10:28:08.811Z,4.10
2023-04-28T10:30:38.442Z,3.55
2023-04-28T10:33:09.383Z,3.45
2023-04-28T10:35:47.554Z,3.70
2023-04-28T10:38:16.711Z,2.90
2023-04-28T10:40:45.032Z,5.85
2023-04-28T10:43:13.812Z,3.45
2023-04-28T10:45:56.804Z,3.42
2023-04-28T10:48:46.805Z,3.25
2023-04-28T10:51:22.616Z,3.22
2023-04-28T10:53:52.425Z,3.20
2023-04-28T10:56:27.844Z,3.08
2023-04-28T10:58:59.260Z,2.67
2023-04-28T11:01:34.888Z,3.00
2023-04-28T11:04:16.080Z,3.03
2023-04-28T11:06:46.022Z,2.67
2023-04-28T11:09:22.521Z,2.53
2023-04-28T11:12:02.229Z,3.08
2023-04-28T11:14:33.253Z,3.10
2023-04-28T11:17:03.120Z,2.95
2023-04-28T11:19:33.320Z,4.57
2023-04-28T11:22:02.925Z,2.90
2023-04-28T11:24:32.348Z,3.03
2023-04-28T11:27:00.678Z,3.50
2023-04-28T11:29:31.846Z,3.28
2023-04-28T11:32:00.001Z,2.72
2023-04-28T11:34:27.523Z,3.00
2023-04-28T11:36:55.192Z,3.35
2023-04-28T11:39:30.652Z,2.80
2023-04-28T11:42:02.962Z,2.80
2023-04-28T11:44:31.301Z,3.47
2023-04-28T11:47:01.775Z,2.92
2023-04-28T11:49:42.671Z,3.30
2023-04-28T11:52:10.871Z,3.58
2023-04-28T11:54:38.839Z,3.17
2023-04-28T11:57:06.747Z,3.37
2023-04-28T11:59:35.777Z,2.97
2023-04-28T12:02:06.858Z,3.42
2023-04-28T12:04:36.704Z,3.08
2023-04-28T12:07:15.737Z,3.22
2023-04-28T12:09:48.857Z,3.20
2023-04-28T12:12:40.028Z,37.30
2023-04-28T12:15:13.395Z,3.45
2023-04-28T12:17:42.326Z,3.42
2023-04-28T12:20:18.142Z,4.22
2023-04-28T12:22:47.905Z,3.55
2023-04-28T12:25:17.924Z,3.22
2023-04-28T12:28:10.724Z,3.00
2023-04-28T12:30:41.747Z,3.05
2023-04-28T12:33:27.634Z,3.55
2023-04-28T12:35:57.053Z,2.87
2023-04-28T12:38:25.527Z,2.50
2023-04-28T12:40:53.288Z,2.97
2023-04-28T12:43:23.314Z,3.12
2023-04-28T12:45:53.333Z,2.72
2023-04-28T12:48:22.386Z,3.00
2023-04-28T12:50:49.821Z,2.53
2023-04-28T12:53:17.481Z,3.20
2023-04-28T12:55:44.897Z,2.75
2023-04-28T12:58:12.475Z,2.47
2023-04-28T13:00:41.822Z,3.15
2023-04-28T13:03:10.208Z,2.67
2023-04-28T13:05:37.686Z,2.47
2023-04-28T13:08:05.592Z,2.70
2023-04-28T13:10:33.024Z,2.72
2023-04-28T13:13:00.395Z,3.12
2023-04-28T13:15:28.071Z,3.08
2023-04-28T13:17:55.457Z,3.67
2023-04-28T13:20:23.044Z,3.20
2023-04-28T13:22:50.702Z,2.90
2023-04-28T13:25:18.078Z,2.90
2023-04-28T13:27:46.053Z,2.90
2023-04-28T13:30:13.856Z,3.20
2023-04-28T13:32:41.461Z,3.58
2023-04-28T13:35:09.561Z,2.90
2023-04-28T13:37:42.562Z,3.30
2023-04-28T13:40:10.662Z,3.08
2023-04-28T13:42:38.385Z,3.42
2023-04-28T13:45:06.203Z,3.67
2023-04-28T13:47:33.694Z,2.85
2023-04-28T13:50:01.336Z,3.25
2023-04-28T13:52:28.759Z,2.90
2023-04-28T13:54:56.244Z,3.20
2023-04-28T13:57:24.051Z,3.03
2023-04-28T13:59:51.450Z,3.22
2023-04-28T14:02:19.137Z,2.95
2023-04-28T14:04:49.349Z,3.22
2023-04-28T14:07:17.077Z,3.15
2023-04-28T14:09:44.626Z,2.97
2023-04-28T14:12:13.845Z,3.35
2023-04-28T14:14:41.621Z,3.17
2023-04-28T14:17:10.125Z,3.17
2023-04-28T14:19:37.783Z,3.12
2023-04-28T14:22:05.306Z,3.62
2023-04-28T14:24:32.939Z,2.80
2023-04-28T14:27:00.547Z,2.78
2023-04-28T14:29:27.928Z,3.78
2023-04-28T14:31:55.335Z,2.97
2023-04-28T14:34:24.327Z,3.47
2023-04-28T14:36:51.762Z,3.00
2023-04-28T14:39:19.129Z,3.65
2023-04-28T14:41:48.812Z,3.05
2023-04-28T14:44:16.598Z,2.58
2023-04-28T14:46:44.089Z,3.28
2023-04-28T14:49:11.856Z,3.15
2023-04-28T14:51:39.225Z,3.80
2023-04-28T14:54:06.672Z,4.28
2023-04-28T14:56:34.412Z,3.20
2023-04-28T14:59:01.815Z,3.15
2023-04-28T15:01:30.544Z,3.05
2023-04-28T15:03:58.675Z,2.80
2023-04-28T15:06:26.849Z,2.87
2023-04-28T15:08:54.238Z,3.30
2023-04-28T15:11:22.059Z,3.78
2023-04-28T15:13:49.459Z,3.22
2023-04-28T15:16:16.981Z,3.55
2023-04-28T15:18:46.019Z,3.65
2023-04-28T15:21:13.492Z,3.55
2023-04-28T15:23:40.986Z,3.97
2023-04-28T15:26:10.856Z,3.42
2023-04-28T15:28:38.323Z,4.10
2023-04-28T15:31:06.210Z,3.25
2023-04-28T15:33:34.047Z,3.55
2023-04-28T15:36:01.652Z,5.80
2023-04-28T15:38:31.305Z,4.18
2023-04-28T15:40:58.945Z,4.47
2023-04-28T15:43:26.329Z,3.67
2023-04-28T15:45:53.892Z,3.53
2023-04-28T15:48:23.211Z,3.78
2023-04-28T15:50:50.624Z,3.67
2023-04-28T15:53:18.527Z,3.72
2023-04-28T15:55:46.228Z,3.03
2023-04-28T15:58:13.663Z,4.85
2023-04-28T16:00:42.567Z,3.65
2023-04-28T16:03:10.429Z,3.75
2023-04-28T16:05:38.593Z,3.60
2023-04-28T16:08:06.120Z,3.58
2023-04-28T16:10:33.909Z,4.25
2023-04-28T16:13:01.507Z,3.87
2023-04-28T16:15:29.254Z,3.58
2023-04-28T16:17:58.746Z,4.95
2023-04-28T16:20:26.153Z,3.87
2023-04-28T16:22:53.772Z,4.55
2023-04-28T16:25:21.705Z,3.87
2023-04-28T16:27:49.337Z,4.25
2023-04-28T16:30:17.874Z,4.40
2023-04-28T16:32:45.726Z,4.15
2023-04-28T16:35:15.223Z,4.85
2023-04-28T16:37:43.534Z,5.25
2023-04-28T16:40:13.388Z,5.12
2023-04-28T16:42:42.314Z,4.87
2023-04-28T16:45:10.770Z,5.60
2023-04-28T16:47:42.581Z,5.30
2023-04-28T16:50:11.377Z,5.10
2023-04-28T16:52:39.102Z,4.53
2023-04-28T16:55:07.107Z,4.47
2023-04-28T16:57:34.468Z,5.50
2023-04-28T17:00:02.506Z,4.30
2023-04-28T17:02:30.077Z,4.35
2023-04-28T17:04:57.724Z,4.53
2023-04-28T17:07:26.042Z,4.60
2023-04-28T17:09:53.727Z,4.28
2023-04-28T17:12:23.204Z,4.65
2023-04-28T17:14:51.189Z,5.03
2023-04-28T17:17:18.652Z,4.80
2023-04-28T17:19:46.051Z,4.82
2023-04-28T17:22:13.768Z,5.22
2023-04-28T17:24:41.164Z,4.40
2023-04-28T17:27:09.431Z,4.80
2023-04-28T17:29:37.076Z,5.90
2023-04-28T17:32:04.626Z,5.53
2023-04-28T17:34:31.996Z,6.20
2023-04-28T17:36:59.753Z,6.35
2023-04-28T17:39:27.290Z,6.62
2023-04-28T17:41:55.627Z,8.25
2023-04-28T17:44:23.336Z,7.97
2023-04-28T17:46:50.870Z,13.32
2023-04-28T17:49:18.825Z,9.40
2023-04-28T17:51:49.318Z,7.03
2023-04-28T17:54:17.085Z,7.90
2023-04-28T17:56:44.474Z,7.65
2023-04-28T17:59:14.589Z,6.87
2023-04-28T18:01:42.251Z,7.82
2023-04-28T18:04:11.125Z,6.97
2023-04-28T18:06:38.783Z,7.00
2023-04-28T18:09:06.969Z,8.10
2023-04-28T18:11:34.800Z,7.45
2023-04-28T18:14:03.241Z,6.05
2023-04-28T18:16:31.133Z,5.93
2023-04-28T18:18:59.497Z,5.22
2023-04-28T18:21:28.170Z,4.87
2023-04-28T18:23:55.860Z,5.25
2023-04-28T18:26:24.616Z,5.53
2023-04-28T18:28:53.092Z,5.75
2023-04-28T18:31:20.795Z,5.55
2023-04-28T18:33:49.203Z,5.43
2023-04-28T18:36:17.513Z,5.70
2023-04-28T18:38:47.071Z,6.35
2023-04-28T18:41:18.328Z,6.80
2023-04-28T18:43:46.057Z,6.03
2023-04-28T18:46:14.088Z,6.57
2023-04-28T18:48:42.771Z,7.10
2023-04-28T18:51:10.742Z,7.57
2023-04-28T18:53:38.659Z,7.05
2023-04-28T18:56:08.972Z,7.75
2023-04-28T18:58:41.465Z,7.80
2023-04-28T19:01:19.959Z,8.40
2023-04-28T19:03:47.534Z,9.43
2023-04-28T19:06:16.647Z,10.35
2023-04-28T19:08:44.900Z,10.48
2023-04-28T19:11:12.774Z,10.63
2023-04-28T19:13:45.606Z,11.40
2023-04-28T19:16:14.621Z,10.52
2023-04-28T19:18:44.482Z,10.98
2023-04-28T19:21:13.953Z,11.70
2023-04-28T19:23:42.031Z,12.77
2023-04-28T19:26:10.139Z,11.68
2023-04-28T19:28:38.646Z,12.63
2023-04-28T19:31:06.905Z,11.85
2023-04-28T19:33:35.490Z,10.63
2023-04-28T19:36:05.854Z,11.18
2023-04-28T19:38:36.088Z,9.95
2023-04-28T19:41:04.479Z,10.75
2023-04-28T19:43:32.671Z,11.15
2023-04-28T19:46:02.439Z,11.85
2023-04-28T19:48:31.413Z,13.68
2023-04-28T19:51:01.479Z,12.18
2023-04-28T19:53:30.175Z,13.20
2023-04-28T19:56:01.161Z,12.88
2023-04-28T19:58:30.139Z,12.05
2023-04-28T20:01:01.626Z,12.85
2023-04-28T20:03:30.240Z,11.02
2023-04-28T20:05:58.442Z,11.48
2023-04-28T20:08:28.847Z,12.85
2023-04-28T20:10:57.656Z,11.68
2023-04-28T20:13:27.249Z,11.88
2023-04-28T20:15:56.153Z,11.40
2023-04-28T20:18:24.565Z,11.65
2023-04-28T20:20:53.921Z,12.65
2023-04-28T20:23:21.689Z,11.95
2023-04-28T20:25:50.553Z,12.13
2023-04-28T20:28:19.053Z,12.48
2023-04-28T20:30:47.084Z,12.70
2023-04-28T20:33:18.925Z,12.35
2023-04-28T20:35:46.757Z,11.95
2023-04-28T20:38:14.645Z,11.68
2023-04-28T20:40:42.015Z,12.23
2023-04-28T20:43:09.857Z,12.40
2023-04-28T20:45:37.949Z,10.80
2023-04-28T20:48:05.618Z,11.40
2023-04-28T20:50:38.489Z,11.80
2023-04-28T20:53:06.319Z,11.40
2023-04-28T20:55:33.761Z,12.60
2023-04-28T20:58:01.215Z,10.63
2023-04-28T21:00:28.957Z,12.23
2023-04-28T21:02:56.480Z,13.30
2023-04-28T21:05:24.114Z,14.00
2023-04-28T21:07:52.047Z,16.95
2023-04-28T21:10:23.356Z,14.32
2023-04-28T21:12:50.947Z,11.80
2023-04-28T21:15:18.645Z,11.10
2023-04-28T21:17:46.463Z,12.32
2023-04-28T21:20:14.752Z,10.13
2023-04-28T21:22:48.104Z,10.90
2023-04-28T21:25:16.668Z,9.95
2023-04-28T21:27:45.297Z,10.25
2023-04-28T21:30:14.702Z,8.45
2023-04-28T21:32:42.200Z,8.43
2023-04-28T21:35:10.915Z,8.73
2023-04-28T21:37:38.750Z,8.82
2023-04-28T21:40:06.870Z,8.07
2023-04-28T21:42:35.074Z,8.23
2023-04-28T21:45:02.518Z,8.38
2023-04-28T21:47:30.284Z,8.23
2023-04-28T21:49:57.987Z,8.30
2023-04-28T21:52:25.355Z,8.05
2023-04-28T21:54:52.816Z,8.13
2023-04-28T21:57:20.516Z,7.90
2023-04-28T21:59:50.218Z,8.82
2023-04-28T22:02:18.219Z,8.65
2023-04-28T22:04:46.012Z,7.90
2023-04-28T22:07:13.988Z,8.77
2023-04-28T22:09:41.528Z,7.70
2023-04-28T22:12:09.223Z,7.45
2023-04-28T22:14:41.021Z,7.60
2023-04-28T22:17:11.632Z,8.70
2023-04-28T22:19:39.193Z,9.20
2023-04-28T22:22:08.759Z,9.52
2023-04-28T22:24:38.088Z,9.32
2023-04-28T22:27:05.430Z,10.23
2023-04-28T22:29:32.862Z,9.85
2023-04-28T22:32:00.589Z,10.48
2023-04-28T22:34:28.127Z,11.25
2023-04-28T22:36:55.574Z,11.05
2023-04-28T22:39:25.212Z,12.00
2023-04-28T22:41:52.779Z,11.35
2023-04-28T22:44:20.162Z,11.93
2023-04-28T22:46:47.912Z,10.32
2023-04-28T22:49:15.454Z,11.40
2023-04-28T22:51:42.958Z,11.38
2023-04-28T22:54:10.845Z,9.68
2023-04-28T22:56:38.190Z,10.27
2023-04-28T22:59:05.653Z,9.68
2023-04-28T23:01:33.409Z,9.05
2023-04-28T23:04:01.015Z,9.38
2023-04-28T23:06:32.170Z,9.85
2023-04-28T23:08:59.896Z,10.27
2023-04-28T23:11:27.474Z,10.10
2023-04-28T23:13:54.834Z,10.27
2023-04-28T23:16:23.018Z,8.70
2023-04-28T23:18:50.545Z,9.18
2023-04-28T23:21:17.922Z,9.27
2023-04-28T23:23:45.618Z,8.93
2023-04-28T23:26:13.020Z,7.95
2023-04-28T23:28:40.432Z,8.48
2023-04-28T23:31:08.099Z,8.43
2023-04-28T23:33:35.460Z,8.52
2023-04-28T23:36:02.804Z,8.70
2023-04-28T23:38:30.562Z,8.55
2023-04-28T23:40:58.172Z,8.05
2023-04-28T23:43:25.897Z,8.07
2023-04-28T23:45:53.735Z,8.32
2023-04-28T23:48:22.168Z,8.75
2023-04-28T23:50:50.551Z,9.23
2023-04-28T23:53:18.264Z,8.43
2023-04-28T23:55:45.731Z,10.20
2023-04-28T23:58:13.087Z,8.65
